createdAt,value
2023-03-06T00:01:32.032Z,14.40
2023-03-06T00:03:58.564Z,17.90
2023-03-06T00:06:25.235Z,17.00
2023-03-06T00:08:51.786Z,13.90
2023-03-06T00:11:18.164Z,14.50
2023-03-06T00:13:44.543Z,13.10
2023-03-06T00:16:11.176Z,13.00
2023-03-06T00:18:37.684Z,12.10
2023-03-06T00:21:07.917Z,12.50
2023-03-06T00:23:35.866Z,12.60
2023-03-06T00:26:02.720Z,12.20
2023-03-06T00:28:30.867Z,14.20
2023-03-06T00:30:57.362Z,11.20
2023-03-06T00:33:23.828Z,10.80
2023-03-06T00:35:50.397Z,10.40
2023-03-06T00:38:16.916Z,11.90
2023-03-06T00:40:43.455Z,11.90
2023-03-06T00:43:10.767Z,12.00
2023-03-06T00:45:38.098Z,11.80
2023-03-06T00:48:05.068Z,13.10
2023-03-06T00:50:31.952Z,13.50
2023-03-06T00:52:58.799Z,13.30
2023-03-06T00:55:25.279Z,11.50
2023-03-06T00:57:51.763Z,13.10
2023-03-06T01:00:18.494Z,12.30
2023-03-06T01:02:45.076Z,11.30
2023-03-06T01:05:12.993Z,12.00
2023-03-06T01:07:39.523Z,12.90
2023-03-06T01:10:07.601Z,11.30
2023-03-06T01:12:34.542Z,12.60
2023-03-06T01:15:01.279Z,14.60
2023-03-06T01:17:28.011Z,15.40
2023-03-06T01:19:54.450Z,12.90
2023-03-06T01:22:24.260Z,13.20
2023-03-06T01:24:51.329Z,13.10
2023-03-06T01:27:17.741Z,9.20
2023-03-06T01:29:44.244Z,13.10
2023-03-06T01:32:10.833Z,14.40
2023-03-06T01:34:37.674Z,13.40
2023-03-06T01:37:04.395Z,12.50
2023-03-06T01:39:30.879Z,13.90
2023-03-06T01:41:57.307Z,12.30
2023-03-06T01:44:23.784Z,14.20
2023-03-06T01:46:50.158Z,15.50
2023-03-06T01:49:22.809Z,12.60
2023-03-06T01:51:55.392Z,12.80
2023-03-06T01:54:27.841Z,15.10
2023-03-06T01:56:59.403Z,14.90
2023-03-06T01:59:27.044Z,15.60
2023-03-06T02:01:54.610Z,12.00
2023-03-06T02:04:21.011Z,15.00
2023-03-06T02:06:47.746Z,14.30
2023-03-06T02:09:14.311Z,14.10
2023-03-06T02:11:43.380Z,15.50
2023-03-06T02:14:14.444Z,13.00
2023-03-06T02:16:41.140Z,12.30
2023-03-06T02:19:08.691Z,13.70
2023-03-06T02:21:36.517Z,11.80
2023-03-06T02:24:10.438Z,13.80
2023-03-06T02:26:37.596Z,14.00
2023-03-06T02:29:04.174Z,14.90
2023-03-06T02:31:31.913Z,13.50
2023-03-06T02:34:13.370Z,14.40
2023-03-06T02:36:42.032Z,14.10
2023-03-06T02:39:08.891Z,13.70
2023-03-06T02:41:35.529Z,14.00
2023-03-06T02:44:02.062Z,13.10
2023-03-06T02:46:28.552Z,12.50
2023-03-06T02:48:55.092Z,15.60
2023-03-06T02:51:21.777Z,14.40
2023-03-06T02:53:48.132Z,14.90
2023-03-06T02:56:14.716Z,14.50
2023-03-06T02:58:41.486Z,12.90
2023-03-06T03:01:08.166Z,13.20
2023-03-06T03:03:34.748Z,12.50
2023-03-06T03:06:03.736Z,15.60
2023-03-06T03:08:30.474Z,13.80
2023-03-06T03:10:56.956Z,11.20
2023-03-06T03:13:24.687Z,13.10
2023-03-06T03:16:18.328Z,11.80
2023-03-06T03:18:47.189Z,12.70
2023-03-06T03:21:14.033Z,13.00
2023-03-06T03:23:40.786Z,13.00
2023-03-06T03:26:12.167Z,10.20
2023-03-06T03:28:38.999Z,13.80
2023-03-06T03:31:06.356Z,11.10
2023-03-06T03:33:33.918Z,14.50
2023-03-06T03:36:01.550Z,15.50
2023-03-06T03:38:28.417Z,15.90
2023-03-06T03:40:54.892Z,13.70
2023-03-06T03:43:21.238Z,12.80
2023-03-06T03:45:47.644Z,13.50
2023-03-06T03:48:14.389Z,15.40
2023-03-06T03:50:40.822Z,14.90
2023-03-06T03:53:07.627Z,14.00
2023-03-06T03:55:34.327Z,13.00
2023-03-06T03:58:00.896Z,13.70
2023-03-06T04:00:27.404Z,15.50
2023-03-06T04:02:53.904Z,12.70
2023-03-06T04:05:20.523Z,13.30
2023-03-06T04:07:46.910Z,14.20
2023-03-06T04:10:13.500Z,17.40
2023-03-06T04:12:40.006Z,16.40
2023-03-06T04:15:07.009Z,18.70
2023-03-06T04:17:34.454Z,15.70
2023-03-06T04:20:01.523Z,18.10
2023-03-06T04:22:27.972Z,19.80
2023-03-06T04:24:54.326Z,16.20
2023-03-06T04:27:20.700Z,18.40
2023-03-06T04:29:47.281Z,18.40
2023-03-06T04:32:14.187Z,18.50
2023-03-06T04:34:42.095Z,19.80
2023-03-06T04:37:17.591Z,17.10
2023-03-06T04:39:44.190Z,18.80
2023-03-06T04:42:10.612Z,17.70
2023-03-06T04:44:37.138Z,18.70
2023-03-06T04:47:04.048Z,19.90
2023-03-06T04:49:30.477Z,20.70
2023-03-06T04:51:56.907Z,20.20
2023-03-06T04:54:23.370Z,17.20
2023-03-06T04:56:49.842Z,19.70
2023-03-06T04:59:16.289Z,22.60
2023-03-06T05:01:42.770Z,20.00
2023-03-06T05:04:09.408Z,19.80
2023-03-06T05:06:35.941Z,20.00
2023-03-06T05:09:02.307Z,20.30
2023-03-06T05:11:29.212Z,14.90
2023-03-06T05:13:55.810Z,19.90
2023-03-06T05:16:22.395Z,23.90
2023-03-06T05:18:50.704Z,20.10
2023-03-06T05:21:17.298Z,18.50
2023-03-06T05:23:43.711Z,20.20
2023-03-06T05:26:11.393Z,20.30
2023-03-06T05:28:38.522Z,18.70
2023-03-06T05:31:05.336Z,18.80
2023-03-06T05:33:32.850Z,21.20
2023-03-06T05:36:00.041Z,18.50
2023-03-06T05:38:27.358Z,20.20
2023-03-06T05:40:53.874Z,16.30
2023-03-06T05:43:20.519Z,21.90
2023-03-06T05:45:49.644Z,19.30
2023-03-06T05:48:16.448Z,23.00
2023-03-06T05:50:43.301Z,22.30
2023-03-06T05:53:09.706Z,20.60
2023-03-06T05:55:36.214Z,19.50
2023-03-06T05:58:02.999Z,20.40
2023-03-06T06:00:29.534Z,18.40
2023-03-06T06:02:56.065Z,19.10
2023-03-06T06:05:22.547Z,20.10
2023-03-06T06:07:49.033Z,18.60
2023-03-06T06:10:15.507Z,17.90
2023-03-06T06:12:42.347Z,17.90
2023-03-06T06:15:11.507Z,15.80
2023-03-06T06:17:37.888Z,19.00
2023-03-06T06:20:04.906Z,16.90
2023-03-06T06:22:34.477Z,17.40
2023-03-06T06:25:01.058Z,16.80
2023-03-06T06:27:27.813Z,19.60
2023-03-06T06:29:54.290Z,18.20
2023-03-06T06:32:21.026Z,19.40
2023-03-06T06:34:47.682Z,18.10
2023-03-06T06:37:14.193Z,15.70
2023-03-06T06:39:40.699Z,17.30
2023-03-06T06:42:28.930Z,19.10
2023-03-06T06:44:56.039Z,16.40
2023-03-06T06:47:24.798Z,15.90
2023-03-06T06:49:52.553Z,15.00
2023-03-06T06:54:45.509Z,15.40
2023-03-06T06:57:12.600Z,16.80
2023-03-06T06:59:39.543Z,16.30
2023-03-06T07:02:06.625Z,14.60
2023-03-06T07:07:02.973Z,13.30
2023-03-06T07:09:30.298Z,14.60
2023-03-06T07:11:57.125Z,13.90
2023-03-06T07:14:24.187Z,16.20
2023-03-06T07:16:50.700Z,15.20
2023-03-06T07:19:17.340Z,11.60
2023-03-06T07:21:43.933Z,14.00
2023-03-06T07:24:10.745Z,14.40
2023-03-06T07:26:37.206Z,15.90
2023-03-06T07:29:04.146Z,13.50
2023-03-06T07:31:30.643Z,12.70
2023-03-06T07:33:57.163Z,12.20
2023-03-06T07:36:24.245Z,12.00
2023-03-06T07:38:50.845Z,12.50
2023-03-06T07:41:19.763Z,12.70
2023-03-06T07:43:47.983Z,12.60
2023-03-06T07:46:14.788Z,15.00
2023-03-06T07:48:41.694Z,14.20
2023-03-06T07:51:12.620Z,13.90
2023-03-06T07:53:39.269Z,12.70
2023-03-06T07:56:08.294Z,12.80
2023-03-06T07:58:36.026Z,14.20
2023-03-06T08:01:03.685Z,13.50
2023-03-06T08:03:30.584Z,12.70
2023-03-06T08:06:07.985Z,13.00
2023-03-06T08:08:36.098Z,12.40
2023-03-06T08:11:03.034Z,12.20
2023-03-06T08:13:29.575Z,15.00
2023-03-06T08:15:56.225Z,12.20
2023-03-06T08:18:22.761Z,13.60
2023-03-06T08:20:49.279Z,12.30
2023-03-06T08:23:16.214Z,11.80
2023-03-06T08:25:42.796Z,13.50
2023-03-06T08:28:09.597Z,12.60
2023-03-06T08:30:36.228Z,12.20
2023-03-06T08:33:03.026Z,13.00
2023-03-06T08:35:29.796Z,12.30
2023-03-06T08:37:56.309Z,11.60
2023-03-06T08:40:22.948Z,12.90
2023-03-06T08:42:49.621Z,14.00
2023-03-06T08:45:16.762Z,13.40
2023-03-06T08:47:43.714Z,16.00
2023-03-06T08:50:13.208Z,15.20
2023-03-06T08:52:39.563Z,13.60
2023-03-06T08:55:06.544Z,12.50
2023-03-06T08:57:33.129Z,16.50
2023-03-06T08:59:59.612Z,13.80
2023-03-06T09:02:26.231Z,12.90
2023-03-06T09:04:53.913Z,13.50
2023-03-06T09:07:20.895Z,12.40
2023-03-06T09:09:47.338Z,11.80
2023-03-06T09:12:14.921Z,14.40
2023-03-06T09:14:41.887Z,12.60
2023-03-06T09:17:08.488Z,12.90
2023-03-06T09:19:35.053Z,13.40
2023-03-06T09:22:01.546Z,13.00
2023-03-06T09:24:28.178Z,14.90
2023-03-06T09:26:54.691Z,12.80
2023-03-06T09:29:22.063Z,12.00
2023-03-06T09:31:48.719Z,13.20
2023-03-06T09:34:15.341Z,12.90
2023-03-06T09:36:55.557Z,12.80
2023-03-06T09:39:24.805Z,15.50
2023-03-06T09:41:52.249Z,12.50
2023-03-06T09:47:06.515Z,14.10
2023-03-06T09:49:38.908Z,13.70
2023-03-06T09:52:14.772Z,12.10
2023-03-06T09:54:47.425Z,11.40
2023-03-06T09:57:19.638Z,12.90
2023-03-06T09:59:47.807Z,19.90
2023-03-06T10:02:19.160Z,13.60
2023-03-06T10:04:49.824Z,11.70
2023-03-06T10:07:25.027Z,12.30
2023-03-06T10:09:56.117Z,10.70
2023-03-06T10:12:25.099Z,14.10
2023-03-06T10:15:00.896Z,14.60
2023-03-06T10:17:30.673Z,11.90
2023-03-06T10:19:56.981Z,13.00
2023-03-06T10:22:37.774Z,12.00
2023-03-06T10:25:23.113Z,12.40
2023-03-06T10:27:51.008Z,12.80
2023-03-06T10:30:24.006Z,11.00
2023-03-06T10:32:57.958Z,11.90
2023-03-06T10:35:30.381Z,10.80
2023-03-06T10:38:04.587Z,12.30
2023-03-06T10:40:37.732Z,13.10
2023-03-06T10:43:11.750Z,13.10
2023-03-06T10:45:49.246Z,12.60
2023-03-06T10:48:25.030Z,11.60
2023-03-06T10:50:53.006Z,9.40
2023-03-06T10:53:21.837Z,12.10
2023-03-06T10:56:08.688Z,11.20
2023-03-06T10:58:35.361Z,12.40
2023-03-06T11:01:02.047Z,11.70
2023-03-06T11:03:29.139Z,13.90
2023-03-06T11:06:07.607Z,13.10
2023-03-06T11:08:35.002Z,11.50
2023-03-06T11:13:30.126Z,11.60
2023-03-06T11:16:02.621Z,10.80
2023-03-06T11:18:34.412Z,7.70
2023-03-06T11:21:02.972Z,9.70
2023-03-06T11:23:37.419Z,8.90
2023-03-06T11:26:07.024Z,10.10
2023-03-06T11:28:53.681Z,9.00
2023-03-06T11:31:22.193Z,8.70
2023-03-06T11:34:01.016Z,9.80
2023-03-06T11:36:30.017Z,9.30
2023-03-06T11:38:56.525Z,10.30
2023-03-06T11:41:42.015Z,9.80
2023-03-06T11:44:27.325Z,9.40
2023-03-06T11:47:03.304Z,8.40
2023-03-06T11:49:38.767Z,10.20
2023-03-06T11:52:09.974Z,8.40
2023-03-06T11:54:36.504Z,8.60
2023-03-06T11:57:17.199Z,10.10
2023-03-06T12:00:02.628Z,9.90
2023-03-06T12:02:39.072Z,8.50
2023-03-06T12:05:08.817Z,8.90
2023-03-06T12:08:02.713Z,8.10
2023-03-06T12:10:34.364Z,8.10
2023-03-06T12:13:12.830Z,8.70
2023-03-06T12:15:41.884Z,8.40
2023-03-06T12:18:31.413Z,8.50
2023-03-06T12:21:00.854Z,9.70
2023-03-06T12:23:42.522Z,9.20
2023-03-06T12:26:08.853Z,10.80
2023-03-06T12:28:38.272Z,8.30
2023-03-06T12:31:07.428Z,9.20
2023-03-06T12:33:42.637Z,9.40
2023-03-06T12:36:27.856Z,8.70
2023-03-06T12:38:57.168Z,9.20
2023-03-06T12:41:53.024Z,9.40
2023-03-06T12:44:28.081Z,9.10
2023-03-06T12:46:57.247Z,9.40
2023-03-06T12:49:32.579Z,9.60
2023-03-06T12:52:00.684Z,10.40
2023-03-06T12:54:29.056Z,11.20
2023-03-06T12:56:56.039Z,9.50
2023-03-06T12:59:38.261Z,11.10
2023-03-06T13:02:07.784Z,10.70
2023-03-06T13:04:41.684Z,10.90
2023-03-06T13:07:27.458Z,9.90
2023-03-06T13:10:12.951Z,10.20
2023-03-06T13:12:55.503Z,11.20
2023-03-06T13:15:39.162Z,12.10
2023-03-06T13:18:20.910Z,10.30
2023-03-06T13:20:48.377Z,9.70
2023-03-06T13:25:48.269Z,10.40
2023-03-06T13:28:25.311Z,11.00
2023-03-06T13:30:53.116Z,10.40
2023-03-06T13:33:32.555Z,11.00
2023-03-06T13:36:18.063Z,11.30
2023-03-06T13:38:50.720Z,12.70
2023-03-06T13:41:24.357Z,11.10
2023-03-06T13:43:52.331Z,13.00
2023-03-06T13:46:24.381Z,11.40
2023-03-06T13:49:04.449Z,12.60
2023-03-06T13:51:35.103Z,16.70
2023-03-06T13:54:10.958Z,20.50
2023-03-06T13:56:40.204Z,12.10
2023-03-06T13:59:09.660Z,16.50
2023-03-06T14:01:48.685Z,13.70
2023-03-06T14:04:25.564Z,12.40
2023-03-06T14:07:01.936Z,10.40
2023-03-06T14:09:32.258Z,11.10
2023-03-06T14:12:02.574Z,10.10
2023-03-06T14:14:42.013Z,11.10
2023-03-06T14:17:23.003Z,13.00
2023-03-06T14:19:50.556Z,12.50
2023-03-06T14:24:51.801Z,11.10
2023-03-06T14:27:19.142Z,12.40
2023-03-06T14:29:49.204Z,12.40
2023-03-06T14:32:17.409Z,11.50
2023-03-06T14:34:45.317Z,11.40
2023-03-06T14:37:19.537Z,11.10
2023-03-06T14:39:46.492Z,12.00
2023-03-06T14:42:20.452Z,10.00
2023-03-06T14:44:48.316Z,9.40
2023-03-06T14:47:24.674Z,9.90
2023-03-06T14:50:09.868Z,11.10
2023-03-06T14:52:37.139Z,10.70
2023-03-06T14:57:31.276Z,12.80
2023-03-06T14:59:58.797Z,13.10
2023-03-06T15:02:27.401Z,13.30
2023-03-06T15:04:58.019Z,13.20
2023-03-06T15:07:27.525Z,11.60
2023-03-06T15:09:54.459Z,12.60
2023-03-06T15:12:22.005Z,11.30
2023-03-06T15:15:04.321Z,12.60
2023-03-06T15:17:31.820Z,12.20
2023-03-06T15:22:25.362Z,12.00
2023-03-06T15:24:52.559Z,15.30
2023-03-06T15:27:27.178Z,14.10
2023-03-06T15:30:09.392Z,13.80
2023-03-06T15:32:41.730Z,13.50
2023-03-06T15:35:23.612Z,14.10
2023-03-06T15:37:50.325Z,12.80
2023-03-06T15:40:18.169Z,16.00
2023-03-06T15:42:45.853Z,17.70
2023-03-06T15:45:15.370Z,18.60
2023-03-06T15:47:42.724Z,18.00
2023-03-06T15:52:35.682Z,17.00
2023-03-06T15:55:02.316Z,16.50
2023-03-06T15:57:28.865Z,20.30
2023-03-06T15:59:55.900Z,19.70
2023-03-06T16:02:23.658Z,17.80
2023-03-06T16:04:50.536Z,19.30
2023-03-06T16:07:17.980Z,19.50
2023-03-06T16:09:46.057Z,18.70
2023-03-06T16:12:19.937Z,18.60
2023-03-06T16:14:47.491Z,18.60
2023-03-06T16:19:41.745Z,17.30
2023-03-06T16:22:08.544Z,19.00
2023-03-06T16:24:35.063Z,18.40
2023-03-06T16:27:01.965Z,20.10
2023-03-06T16:29:31.936Z,16.70
2023-03-06T16:31:58.504Z,16.10
2023-03-06T16:34:25.518Z,16.10
2023-03-06T16:36:52.600Z,16.80
2023-03-06T16:39:20.594Z,18.80
2023-03-06T16:41:48.603Z,17.60
2023-03-06T16:44:15.016Z,18.70
2023-03-06T16:46:45.024Z,21.30
2023-03-06T16:49:16.306Z,17.40
2023-03-06T16:51:42.914Z,21.80
2023-03-06T16:54:09.360Z,23.30
2023-03-06T16:56:35.991Z,22.80
2023-03-06T16:59:02.791Z,21.30
2023-03-06T17:01:29.285Z,17.90
2023-03-06T17:03:56.305Z,20.40
2023-03-06T17:06:23.253Z,21.40
2023-03-06T17:08:50.410Z,17.80
2023-03-06T17:11:19.608Z,20.30
2023-03-06T17:13:46.861Z,18.60
2023-03-06T17:16:15.892Z,19.40
2023-03-06T17:18:46.042Z,18.00
2023-03-06T17:21:14.946Z,17.50
2023-03-06T17:23:41.584Z,21.60
2023-03-06T17:26:11.002Z,20.40
2023-03-06T17:28:38.139Z,16.70
2023-03-06T17:31:21.493Z,15.50
2023-03-06T17:33:49.131Z,14.90
2023-03-06T17:36:16.151Z,21.30
2023-03-06T17:38:43.121Z,12.30
2023-03-06T17:41:10.376Z,18.00
2023-03-06T17:43:39.192Z,13.10
2023-03-06T17:46:08.279Z,11.40
2023-03-06T17:48:35.308Z,14.10
2023-03-06T17:51:02.722Z,12.30
2023-03-06T17:53:31.219Z,11.80
2023-03-06T17:55:58.089Z,10.50
2023-03-06T17:58:25.130Z,15.50
2023-03-06T18:00:51.997Z,12.00
2023-03-06T18:03:18.592Z,12.90
2023-03-06T18:05:45.133Z,11.60
2023-03-06T18:08:11.774Z,12.10
2023-03-06T18:10:42.817Z,14.20
2023-03-06T18:13:10.062Z,12.40
2023-03-06T18:15:40.893Z,14.10
2023-03-06T18:18:07.877Z,13.10
2023-03-06T18:20:39.239Z,13.60
2023-03-06T18:23:06.026Z,13.90
2023-03-06T18:25:32.594Z,13.90
2023-03-06T18:27:59.308Z,13.20
2023-03-06T18:30:27.302Z,14.50
2023-03-06T18:32:55.111Z,12.80
2023-03-06T18:35:22.283Z,14.30
2023-03-06T18:37:49.130Z,11.10
2023-03-06T18:40:15.977Z,11.60
2023-03-06T18:42:42.806Z,12.90
2023-03-06T18:45:10.864Z,10.80
2023-03-06T18:47:38.546Z,11.10
2023-03-06T18:50:06.112Z,10.90
2023-03-06T18:52:34.384Z,12.40
2023-03-06T18:55:01.458Z,76.70
2023-03-06T18:57:30.221Z,22.00
2023-03-06T18:59:57.782Z,16.30
2023-03-06T19:02:25.839Z,11.40
2023-03-06T19:04:54.900Z,11.40
2023-03-06T19:07:22.286Z,15.80
2023-03-06T19:09:50.563Z,16.40
2023-03-06T19:12:19.804Z,21.60
2023-03-06T19:14:49.912Z,19.50
2023-03-06T19:17:17.462Z,20.30
2023-03-06T19:19:44.448Z,16.90
2023-03-06T19:22:13.438Z,18.70
2023-03-06T19:24:41.559Z,11.50
2023-03-06T19:27:11.063Z,11.40
2023-03-06T19:29:38.406Z,12.20
2023-03-06T19:32:05.293Z,10.10
2023-03-06T19:34:32.528Z,10.00
2023-03-06T19:36:59.555Z,8.70
2023-03-06T19:39:28.697Z,8.10
2023-03-06T19:41:56.200Z,7.70
2023-03-06T19:44:23.249Z,9.30
2023-03-06T19:46:50.193Z,10.30
2023-03-06T19:49:17.512Z,8.10
2023-03-06T19:51:44.911Z,8.90
2023-03-06T19:54:12.049Z,8.00
2023-03-06T19:59:09.594Z,10.00
2023-03-06T20:01:38.689Z,8.20
2023-03-06T20:04:05.648Z,7.10
2023-03-06T20:06:35.169Z,6.80
2023-03-06T20:09:03.355Z,6.60
2023-03-06T20:11:30.271Z,7.80
2023-03-06T20:13:58.460Z,9.30
2023-03-06T20:16:29.112Z,8.10
2023-03-06T20:18:58.187Z,8.00
2023-03-06T20:21:27.337Z,7.20
2023-03-06T20:23:56.358Z,4.90
2023-03-06T20:26:23.865Z,5.80
2023-03-06T20:31:18.491Z,5.10
2023-03-06T20:33:46.614Z,5.30
2023-03-06T20:36:14.464Z,4.90
2023-03-06T20:38:41.513Z,5.90
2023-03-06T20:41:14.997Z,7.00
2023-03-06T20:43:41.934Z,61.00
2023-03-06T20:46:09.593Z,91.20
2023-03-06T20:48:36.551Z,37.10
2023-03-06T20:51:04.733Z,27.80
2023-03-06T20:53:31.870Z,41.10
2023-03-06T20:55:58.719Z,59.70
2023-03-06T20:58:28.220Z,56.00
2023-03-06T21:00:56.132Z,50.30
2023-03-06T21:03:23.685Z,31.90
2023-03-06T21:08:16.921Z,15.30
2023-03-06T21:10:47.480Z,13.30
2023-03-06T21:13:15.106Z,14.00
2023-03-06T21:15:42.060Z,20.70
2023-03-06T21:18:11.652Z,26.70
2023-03-06T21:20:39.647Z,31.70
2023-03-06T21:23:07.786Z,31.20
2023-03-06T21:25:35.469Z,30.80
2023-03-06T21:28:02.608Z,30.00
2023-03-06T21:30:29.540Z,28.10
2023-03-06T21:32:56.190Z,28.80
2023-03-06T21:35:22.832Z,22.00
2023-03-06T21:37:49.935Z,23.10
2023-03-06T21:40:16.847Z,16.40
2023-03-06T21:45:11.528Z,16.50
2023-03-06T21:47:40.316Z,12.90
2023-03-06T21:50:08.385Z,29.40
2023-03-06T21:52:35.241Z,38.30
2023-03-06T21:55:02.264Z,45.60
2023-03-06T21:57:29.428Z,57.40
2023-03-06T21:59:56.298Z,48.60
2023-03-06T22:02:23.614Z,52.40
2023-03-06T22:04:51.906Z,58.40
2023-03-06T22:07:18.788Z,64.00
2023-03-06T22:09:47.576Z,82.40
2023-03-06T22:12:16.627Z,76.40
2023-03-06T22:14:43.284Z,79.50
2023-03-06T22:17:09.895Z,70.20
2023-03-06T22:19:36.370Z,53.00
2023-03-06T22:22:03.143Z,47.80
2023-03-06T22:24:31.286Z,40.80
2023-03-06T22:26:58.075Z,32.40
2023-03-06T22:29:24.812Z,26.60
2023-03-06T22:31:52.152Z,27.10
2023-03-06T22:34:18.811Z,18.60
2023-03-06T22:36:45.434Z,19.30
2023-03-06T22:39:12.508Z,16.60
2023-03-06T22:41:39.636Z,11.90
2023-03-06T22:44:06.535Z,13.70
2023-03-06T22:46:33.212Z,10.80
2023-03-06T22:49:01.081Z,12.60
2023-03-06T22:51:28.963Z,12.40
2023-03-06T22:53:56.582Z,8.70
2023-03-06T22:56:24.349Z,9.80
2023-03-06T22:58:51.352Z,10.00
2023-03-06T23:01:19.353Z,10.70
2023-03-06T23:03:49.617Z,8.40
2023-03-06T23:06:17.515Z,7.10
2023-03-06T23:08:47.722Z,9.60
2023-03-06T23:11:15.296Z,12.20
2023-03-06T23:13:42.414Z,11.70
2023-03-06T23:16:09.716Z,12.50
2023-03-06T23:18:37.219Z,17.30
2023-03-06T23:21:07.465Z,16.30
2023-03-06T23:23:34.472Z,19.20
2023-03-06T23:26:01.113Z,16.50
2023-03-06T23:28:27.749Z,18.10
2023-03-06T23:30:54.335Z,18.70
2023-03-06T23:33:21.125Z,16.00
2023-03-06T23:35:50.103Z,23.30
2023-03-06T23:38:16.730Z,23.30
2023-03-06T23:40:43.492Z,21.60
2023-03-06T23:43:10.422Z,20.70
2023-03-06T23:45:37.694Z,18.20
2023-03-06T23:48:05.351Z,19.90
2023-03-06T23:50:31.788Z,20.70
2023-03-06T23:52:58.285Z,13.90
2023-03-06T23:55:24.651Z,14.20
2023-03-06T23:57:51.125Z,14.80
